createdAt,value
2022-10-20T00:01:30.701Z,17.72
2022-10-20T00:03:57.046Z,17.75
2022-10-20T00:06:23.357Z,17.69
2022-10-20T00:08:49.777Z,17.62
2022-10-20T00:11:16.055Z,17.59
2022-10-20T00:13:42.394Z,17.63
2022-10-20T00:16:08.717Z,17.58
2022-10-20T00:18:35.068Z,17.65
2022-10-20T00:21:01.401Z,17.62
2022-10-20T00:23:27.744Z,17.65
2022-10-20T00:25:54.080Z,17.72
2022-10-20T00:28:20.405Z,17.68
2022-10-20T00:30:46.765Z,17.71
2022-10-20T00:33:13.106Z,17.74
2022-10-20T00:35:39.420Z,17.73
2022-10-20T00:38:05.844Z,17.71
2022-10-20T00:40:32.114Z,17.65
2022-10-20T00:42:58.436Z,17.53
2022-10-20T00:45:24.790Z,17.57
2022-10-20T00:47:51.134Z,17.67
2022-10-20T00:50:17.450Z,17.62
2022-10-20T00:52:43.775Z,17.56
2022-10-20T00:55:10.115Z,17.52
2022-10-20T00:57:36.660Z,17.49
2022-10-20T01:00:02.781Z,17.44
2022-10-20T01:02:29.098Z,17.47
2022-10-20T01:04:55.416Z,17.49
2022-10-20T01:07:21.776Z,17.45
2022-10-20T01:09:48.115Z,17.46
2022-10-20T01:12:14.458Z,17.39
2022-10-20T01:14:40.813Z,17.34
2022-10-20T01:17:07.147Z,17.40
2022-10-20T01:19:33.492Z,17.42
2022-10-20T01:21:59.861Z,17.35
2022-10-20T01:24:26.199Z,17.34
2022-10-20T01:26:52.540Z,17.29
2022-10-20T01:29:18.873Z,17.22
2022-10-20T01:31:45.196Z,17.21
2022-10-20T01:34:11.516Z,17.22
2022-10-20T01:36:37.872Z,17.19
2022-10-20T01:39:04.206Z,17.12
2022-10-20T01:41:30.528Z,17.12
2022-10-20T01:43:56.890Z,17.05
2022-10-20T01:46:23.210Z,16.99
2022-10-20T01:48:49.550Z,16.93
2022-10-20T01:51:15.878Z,16.90
2022-10-20T01:53:42.218Z,16.80
2022-10-20T01:56:08.575Z,16.73
2022-10-20T01:58:34.910Z,16.65
2022-10-20T02:01:01.260Z,16.59
2022-10-20T02:03:27.604Z,16.51
2022-10-20T02:05:53.929Z,16.51
2022-10-20T02:08:20.267Z,16.36
2022-10-20T02:10:46.587Z,16.32
2022-10-20T02:13:12.901Z,16.38
2022-10-20T02:15:39.225Z,16.25
2022-10-20T02:18:05.547Z,16.26
2022-10-20T02:20:31.872Z,16.20
2022-10-20T02:22:58.191Z,16.11
2022-10-20T02:25:24.519Z,16.04
2022-10-20T02:27:50.935Z,16.00
2022-10-20T02:30:17.221Z,15.92
2022-10-20T02:32:43.536Z,15.85
2022-10-20T02:35:09.919Z,15.76
2022-10-20T02:37:36.452Z,15.72
2022-10-20T02:40:02.574Z,15.71
2022-10-20T02:42:28.891Z,15.78
2022-10-20T02:44:55.256Z,15.76
2022-10-20T02:47:21.581Z,15.65
2022-10-20T02:49:47.906Z,15.69
2022-10-20T02:52:14.288Z,15.63
2022-10-20T02:54:40.598Z,15.59
2022-10-20T02:57:06.939Z,15.58
2022-10-20T02:59:33.284Z,15.60
2022-10-20T03:01:59.673Z,15.62
2022-10-20T03:06:52.261Z,15.57
2022-10-20T03:09:18.583Z,15.48
2022-10-20T03:11:44.897Z,15.47
2022-10-20T03:14:11.261Z,15.45
2022-10-20T03:16:37.592Z,15.47
2022-10-20T03:19:07.150Z,15.39
2022-10-20T03:21:30.298Z,15.35
2022-10-20T03:23:56.617Z,15.30
2022-10-20T03:26:22.936Z,15.26
2022-10-20T03:28:49.287Z,15.28
2022-10-20T03:31:15.651Z,15.28
2022-10-20T03:33:41.995Z,15.23
2022-10-20T03:36:08.307Z,15.24
2022-10-20T03:38:34.655Z,15.28
2022-10-20T03:43:27.334Z,15.21
2022-10-20T03:45:53.670Z,15.16
2022-10-20T03:48:20.032Z,15.15
2022-10-20T03:50:46.342Z,15.16
2022-10-20T03:53:12.669Z,15.10
2022-10-20T03:55:39.025Z,15.03
2022-10-20T03:58:05.369Z,15.05
2022-10-20T04:00:31.708Z,15.06
2022-10-20T04:02:58.057Z,15.05
2022-10-20T04:05:24.392Z,15.02
2022-10-20T04:07:50.733Z,15.01
2022-10-20T04:10:17.064Z,14.98
2022-10-20T04:12:43.417Z,15.01
2022-10-20T04:15:09.749Z,14.96
2022-10-20T04:17:36.143Z,15.00
2022-10-20T04:20:02.417Z,14.93
2022-10-20T04:22:28.757Z,14.95
2022-10-20T04:24:55.111Z,14.95
2022-10-20T04:27:21.666Z,14.85
2022-10-20T04:29:47.979Z,14.88
2022-10-20T04:32:14.313Z,14.89
2022-10-20T04:34:40.663Z,14.86
2022-10-20T04:37:06.980Z,14.81
2022-10-20T04:39:33.334Z,14.86
2022-10-20T04:41:59.671Z,14.73
2022-10-20T04:44:25.992Z,14.75
2022-10-20T04:46:52.336Z,14.74
2022-10-20T04:49:18.654Z,14.70
2022-10-20T04:51:44.995Z,14.70
2022-10-20T04:54:11.335Z,14.67
2022-10-20T04:56:37.652Z,14.72
2022-10-20T04:59:04.010Z,14.81
2022-10-20T05:01:30.358Z,14.86
2022-10-20T05:03:56.673Z,14.83
2022-10-20T05:06:22.990Z,14.91
2022-10-20T05:08:49.397Z,15.17
2022-10-20T05:11:15.654Z,15.33
2022-10-20T05:13:41.975Z,15.56
2022-10-20T05:16:08.294Z,15.72
2022-10-20T05:18:34.662Z,15.98
2022-10-20T05:21:09.667Z,15.97
2022-10-20T05:23:27.339Z,16.14
2022-10-20T05:25:53.655Z,16.43
2022-10-20T05:28:20.012Z,16.48
2022-10-20T05:30:46.489Z,16.51
2022-10-20T05:33:12.840Z,16.56
2022-10-20T05:35:39.158Z,16.73
2022-10-20T05:38:05.488Z,16.93
2022-10-20T05:40:31.827Z,16.97
2022-10-20T05:42:58.186Z,17.06
2022-10-20T05:45:24.528Z,16.62
2022-10-20T05:47:50.883Z,16.66
2022-10-20T05:50:17.409Z,17.04
2022-10-20T05:52:43.765Z,17.55
2022-10-20T05:55:10.086Z,17.67
2022-10-20T05:57:36.440Z,17.84
2022-10-20T06:00:02.771Z,18.05
2022-10-20T06:02:29.091Z,18.26
2022-10-20T06:04:55.420Z,18.47
2022-10-20T06:07:21.771Z,18.50
2022-10-20T06:09:48.110Z,18.53
2022-10-20T06:12:14.433Z,18.78
2022-10-20T06:14:40.768Z,18.88
2022-10-20T06:17:07.096Z,19.32
2022-10-20T06:19:33.419Z,19.33
2022-10-20T06:22:03.865Z,19.52
2022-10-20T06:24:26.220Z,19.49
2022-10-20T06:26:52.569Z,19.64
2022-10-20T06:29:18.896Z,19.97
2022-10-20T06:31:45.217Z,19.94
2022-10-20T06:34:11.560Z,19.75
2022-10-20T06:36:37.924Z,19.56
2022-10-20T06:39:04.260Z,19.83
2022-10-20T06:41:30.582Z,19.82
2022-10-20T06:43:56.949Z,19.47
2022-10-20T06:46:23.271Z,19.52
2022-10-20T06:48:49.612Z,19.47
2022-10-20T06:51:15.959Z,19.91
2022-10-20T06:53:45.718Z,20.45
2022-10-20T06:56:08.652Z,20.04
2022-10-20T06:58:34.987Z,20.02
2022-10-20T07:01:02.596Z,20.00
2022-10-20T07:03:27.683Z,19.77
2022-10-20T07:05:54.003Z,19.83
2022-10-20T07:08:20.321Z,20.20
2022-10-20T07:10:46.666Z,20.11
2022-10-20T07:13:13.005Z,20.05
2022-10-20T07:15:39.328Z,20.28
2022-10-20T07:18:05.687Z,20.17
2022-10-20T07:20:32.005Z,19.67
2022-10-20T07:22:58.357Z,19.27
2022-10-20T07:25:24.749Z,18.93
2022-10-20T07:27:51.082Z,18.90
2022-10-20T07:30:17.416Z,18.85
2022-10-20T07:32:43.778Z,18.99
2022-10-20T07:35:10.124Z,19.26
2022-10-20T07:37:36.817Z,19.81
2022-10-20T07:40:02.766Z,19.91
2022-10-20T07:42:29.082Z,20.34
2022-10-20T07:44:55.422Z,20.28
2022-10-20T07:47:21.806Z,20.09
2022-10-20T07:49:48.128Z,20.54
2022-10-20T07:52:14.500Z,21.09
2022-10-20T07:54:40.823Z,21.67
2022-10-20T07:57:07.191Z,21.44
2022-10-20T07:59:33.539Z,21.21
2022-10-20T08:02:00.368Z,21.16
2022-10-20T08:04:26.211Z,21.10
2022-10-20T08:06:52.551Z,20.84
2022-10-20T08:09:18.897Z,20.32
2022-10-20T08:11:45.216Z,20.84
2022-10-20T08:14:11.563Z,21.41
2022-10-20T08:16:43.964Z,21.76
2022-10-20T08:21:53.104Z,21.64
2022-10-20T08:24:19.438Z,21.69
2022-10-20T08:26:45.776Z,22.13
2022-10-20T08:29:12.100Z,21.87
2022-10-20T08:31:38.476Z,21.97
2022-10-20T08:34:04.800Z,21.91
2022-10-20T08:36:31.139Z,22.10
2022-10-20T08:39:00.680Z,22.02
2022-10-20T08:41:23.807Z,21.82
2022-10-20T08:43:50.172Z,22.07
2022-10-20T08:46:16.514Z,22.48
2022-10-20T08:48:42.826Z,22.03
2022-10-20T08:51:09.163Z,22.15
2022-10-20T08:53:35.551Z,22.57
2022-10-20T08:56:01.891Z,22.91
2022-10-20T08:58:28.232Z,22.52
2022-10-20T09:00:54.608Z,22.28
2022-10-20T09:03:20.949Z,22.78
2022-10-20T09:05:47.270Z,22.77
2022-10-20T09:08:13.599Z,22.89
2022-10-20T09:10:39.921Z,22.76
2022-10-20T09:13:06.268Z,22.95
2022-10-20T09:15:32.585Z,23.17
2022-10-20T09:17:58.911Z,23.37
2022-10-20T09:20:25.227Z,23.30
2022-10-20T09:22:51.577Z,23.08
2022-10-20T09:25:17.920Z,23.44
2022-10-20T09:27:44.283Z,23.63
2022-10-20T09:30:10.599Z,23.67
2022-10-20T09:32:52.396Z,23.79
2022-10-20T09:35:03.303Z,23.89
2022-10-20T09:37:29.644Z,23.86
2022-10-20T09:39:56.112Z,23.98
2022-10-20T09:42:22.319Z,24.22
2022-10-20T09:44:48.640Z,24.28
2022-10-20T09:47:14.984Z,24.47
2022-10-20T09:49:41.353Z,24.10
2022-10-20T09:52:07.678Z,24.20
2022-10-20T09:54:34.021Z,24.07
2022-10-20T09:57:00.345Z,24.02
2022-10-20T09:59:26.679Z,24.33
2022-10-20T10:01:53.007Z,24.10
2022-10-20T10:04:19.367Z,24.03
2022-10-20T10:06:45.686Z,24.26
2022-10-20T10:09:12.150Z,24.49
2022-10-20T10:11:38.337Z,24.52
2022-10-20T10:14:04.675Z,24.40
2022-10-20T10:16:31.021Z,24.57
2022-10-20T10:18:57.341Z,24.48
2022-10-20T10:21:23.686Z,24.47
2022-10-20T10:23:49.998Z,24.94
2022-10-20T10:26:16.373Z,24.74
2022-10-20T10:28:42.710Z,24.56
2022-10-20T10:31:09.029Z,24.05
2022-10-20T10:33:35.355Z,23.97
2022-10-20T10:36:01.708Z,24.42
2022-10-20T10:38:28.029Z,24.40
2022-10-20T10:40:54.380Z,24.39
2022-10-20T10:43:20.718Z,24.51
2022-10-20T10:45:47.067Z,24.46
2022-10-20T10:48:13.406Z,25.01
2022-10-20T10:50:39.732Z,24.74
2022-10-20T10:55:48.810Z,25.16
2022-10-20T10:58:07.792Z,24.71
2022-10-20T11:00:34.129Z,24.76
2022-10-20T11:03:00.448Z,24.16
2022-10-20T11:05:26.766Z,23.84
2022-10-20T11:07:53.111Z,24.21
2022-10-20T11:10:19.484Z,24.49
2022-10-20T11:12:45.828Z,24.54
2022-10-20T11:15:12.143Z,24.57
2022-10-20T11:17:38.694Z,24.82
2022-10-20T11:20:04.832Z,24.93
2022-10-20T11:22:31.155Z,25.08
2022-10-20T11:24:57.529Z,24.67
2022-10-20T11:27:23.881Z,23.84
2022-10-20T11:29:50.188Z,23.97
2022-10-20T11:32:16.575Z,24.23
2022-10-20T11:34:42.884Z,24.18
2022-10-20T11:37:09.207Z,24.23
2022-10-20T11:39:35.561Z,24.77
2022-10-20T11:42:01.908Z,24.92
2022-10-20T11:44:28.228Z,24.80
2022-10-20T11:46:54.610Z,25.21
2022-10-20T11:49:20.945Z,25.24
2022-10-20T11:51:47.265Z,24.66
2022-10-20T11:54:13.643Z,24.93
2022-10-20T11:56:39.987Z,24.82
2022-10-20T11:59:06.304Z,24.65
2022-10-20T12:01:32.706Z,24.68
2022-10-20T12:03:58.977Z,24.55
2022-10-20T12:06:25.300Z,24.56
2022-10-20T12:08:51.667Z,24.62
2022-10-20T12:11:17.990Z,24.46
2022-10-20T12:13:44.308Z,24.42
2022-10-20T12:16:10.651Z,24.97
2022-10-20T12:18:36.969Z,24.98
2022-10-20T12:21:03.315Z,24.86
2022-10-20T12:23:29.654Z,24.77
2022-10-20T12:25:56.018Z,24.65
2022-10-20T12:28:22.393Z,24.61
2022-10-20T12:30:48.740Z,24.74
2022-10-20T12:33:15.052Z,24.93
2022-10-20T12:35:41.378Z,25.18
2022-10-20T12:38:07.720Z,25.18
2022-10-20T12:40:34.077Z,25.08
2022-10-20T12:43:00.395Z,24.77
2022-10-20T12:45:26.741Z,25.17
2022-10-20T12:47:53.064Z,25.22
2022-10-20T12:50:19.398Z,25.06
2022-10-20T12:52:45.718Z,25.20
2022-10-20T12:55:12.062Z,25.10
2022-10-20T12:57:38.685Z,24.97
2022-10-20T13:00:04.791Z,24.91
2022-10-20T13:02:31.129Z,25.03
2022-10-20T13:04:57.475Z,24.63
2022-10-20T13:07:23.831Z,24.68
2022-10-20T13:09:50.187Z,24.23
2022-10-20T13:12:16.507Z,24.15
2022-10-20T13:14:42.909Z,23.83
2022-10-20T13:17:09.305Z,23.42
2022-10-20T13:19:35.618Z,23.00
2022-10-20T13:22:01.956Z,22.55
2022-10-20T13:24:28.319Z,22.32
2022-10-20T13:26:54.657Z,22.36
2022-10-20T13:29:20.973Z,22.24
2022-10-20T13:31:47.354Z,22.23
2022-10-20T13:34:13.702Z,22.07
2022-10-20T13:36:40.043Z,22.07
2022-10-20T13:39:06.385Z,22.05
2022-10-20T13:41:32.706Z,21.98
2022-10-20T13:44:00.825Z,21.98
2022-10-20T13:46:25.405Z,21.95
2022-10-20T13:48:51.726Z,21.89
2022-10-20T13:51:20.498Z,21.82
2022-10-20T13:53:44.396Z,21.68
2022-10-20T13:56:10.737Z,21.77
2022-10-20T13:58:37.098Z,21.78
2022-10-20T14:01:03.497Z,21.65
2022-10-20T14:03:29.755Z,21.51
2022-10-20T14:05:56.094Z,21.48
2022-10-20T14:08:23.547Z,21.41
2022-10-20T14:10:48.791Z,21.40
2022-10-20T14:13:15.114Z,21.39
2022-10-20T14:15:41.452Z,21.26
2022-10-20T14:18:07.776Z,21.26
2022-10-20T14:20:34.117Z,21.28
2022-10-20T14:23:00.439Z,21.27
2022-10-20T14:25:26.779Z,21.32
2022-10-20T14:27:53.121Z,21.24
2022-10-20T14:30:19.489Z,21.16
2022-10-20T14:32:45.813Z,20.93
2022-10-20T14:35:12.136Z,20.91
2022-10-20T14:37:38.856Z,20.86
2022-10-20T14:40:04.888Z,20.80
2022-10-20T14:42:31.191Z,20.74
2022-10-20T14:44:57.516Z,20.70
2022-10-20T14:47:23.858Z,20.58
2022-10-20T14:49:52.299Z,20.57
2022-10-20T14:52:20.373Z,20.58
2022-10-20T14:54:42.919Z,20.39
2022-10-20T14:57:09.261Z,20.36
2022-10-20T14:59:35.606Z,20.30
2022-10-20T15:02:01.942Z,20.22
2022-10-20T15:04:30.063Z,20.20
2022-10-20T15:06:54.699Z,20.15
2022-10-20T15:09:21.059Z,20.14
2022-10-20T15:11:47.349Z,20.02
2022-10-20T15:14:13.671Z,19.93
2022-10-20T15:16:40.016Z,19.89
2022-10-20T15:19:06.339Z,19.86
2022-10-20T15:21:32.683Z,19.82
2022-10-20T15:23:59.041Z,19.79
2022-10-20T15:26:25.379Z,19.62
2022-10-20T15:28:51.702Z,19.63
2022-10-20T15:31:18.052Z,19.56
2022-10-20T15:33:44.399Z,19.53
2022-10-20T15:36:10.711Z,19.46
2022-10-20T15:38:37.038Z,19.35
2022-10-20T15:41:03.369Z,19.30
2022-10-20T15:43:29.705Z,19.22
2022-10-20T15:45:56.061Z,19.16
2022-10-20T15:48:22.382Z,19.11
2022-10-20T15:50:48.744Z,18.97
2022-10-20T15:53:15.114Z,18.87
2022-10-20T15:55:41.449Z,18.89
2022-10-20T15:58:07.770Z,18.83
2022-10-20T16:00:34.151Z,18.84
2022-10-20T16:03:00.464Z,18.73
2022-10-20T16:05:26.783Z,18.65
2022-10-20T16:07:53.115Z,18.55
2022-10-20T16:10:19.449Z,18.50
2022-10-20T16:12:45.829Z,18.46
2022-10-20T16:15:12.173Z,18.43
2022-10-20T16:17:38.555Z,18.41
2022-10-20T16:20:04.831Z,18.35
2022-10-20T16:22:31.172Z,18.29
2022-10-20T16:24:57.537Z,18.20
2022-10-20T16:27:23.866Z,18.09
2022-10-20T16:29:50.186Z,18.01
2022-10-20T16:32:17.702Z,17.98
2022-10-20T16:34:44.021Z,18.00
2022-10-20T16:37:10.369Z,17.96
2022-10-20T16:39:36.715Z,17.97
2022-10-20T16:42:03.072Z,17.92
2022-10-20T16:44:29.415Z,17.82
2022-10-20T16:46:55.740Z,17.79
2022-10-20T16:49:22.119Z,17.72
2022-10-20T16:51:48.463Z,17.67
2022-10-20T16:54:14.791Z,17.62
2022-10-20T16:56:41.154Z,17.60
2022-10-20T16:59:07.439Z,17.56
2022-10-20T17:01:33.819Z,17.44
2022-10-20T17:04:00.169Z,17.42
2022-10-20T17:06:26.489Z,17.31
2022-10-20T17:08:52.889Z,17.31
2022-10-20T17:11:19.208Z,17.27
2022-10-20T17:13:45.532Z,17.18
2022-10-20T17:16:11.858Z,17.11
2022-10-20T17:18:38.212Z,17.07
2022-10-20T17:21:04.535Z,17.07
2022-10-20T17:23:30.902Z,17.03
2022-10-20T17:25:57.313Z,17.02
2022-10-20T17:28:23.629Z,16.95
2022-10-20T17:30:49.950Z,16.91
2022-10-20T17:33:16.285Z,16.82
2022-10-20T17:35:42.616Z,16.81
2022-10-20T17:38:08.939Z,16.83
2022-10-20T17:40:35.299Z,16.78
2022-10-20T17:43:01.705Z,16.71
2022-10-20T17:45:28.043Z,16.65
2022-10-20T17:47:54.382Z,16.66
2022-10-20T17:50:20.728Z,16.64
2022-10-20T17:52:47.091Z,16.57
2022-10-20T17:55:13.435Z,16.59
2022-10-20T17:57:39.795Z,16.59
2022-10-20T18:00:11.084Z,16.49
2022-10-20T18:02:32.498Z,16.50
2022-10-20T18:04:58.824Z,16.44
2022-10-20T18:07:25.199Z,16.40
2022-10-20T18:09:51.555Z,16.39
2022-10-20T18:12:17.897Z,16.35
2022-10-20T18:14:44.243Z,16.34
2022-10-20T18:17:10.606Z,16.26
2022-10-20T18:19:37.367Z,16.24
2022-10-20T18:22:03.687Z,16.24
2022-10-20T18:24:30.025Z,16.24
2022-10-20T18:26:56.356Z,16.23
2022-10-20T18:29:22.705Z,16.20
2022-10-20T18:31:49.025Z,16.17
2022-10-20T18:34:15.372Z,16.18
2022-10-20T18:36:45.009Z,16.13
2022-10-20T18:39:08.054Z,16.13
2022-10-20T18:41:34.417Z,16.10
2022-10-20T18:44:00.762Z,16.06
2022-10-20T18:46:27.084Z,16.09
2022-10-20T18:48:53.451Z,16.04
2022-10-20T18:51:19.798Z,15.97
2022-10-20T18:53:46.192Z,16.03
2022-10-20T18:56:12.488Z,15.99
2022-10-20T18:58:38.841Z,15.95
2022-10-20T19:01:05.204Z,15.93
2022-10-20T19:03:31.537Z,15.91
2022-10-20T19:05:57.854Z,15.87
2022-10-20T19:08:24.185Z,15.78
2022-10-20T19:10:50.509Z,15.75
2022-10-20T19:13:16.885Z,15.75
2022-10-20T19:15:43.223Z,15.76
2022-10-20T19:18:09.548Z,15.77
2022-10-20T19:20:35.889Z,15.73
2022-10-20T19:23:02.209Z,15.66
2022-10-20T19:25:28.531Z,15.63
2022-10-20T19:27:54.892Z,15.59
2022-10-20T19:30:21.218Z,15.55
2022-10-20T19:32:47.845Z,15.54
2022-10-20T19:35:13.900Z,15.53
2022-10-20T19:37:40.224Z,15.54
2022-10-20T19:40:06.555Z,15.49
2022-10-20T19:42:32.964Z,15.47
2022-10-20T19:44:59.280Z,15.43
2022-10-20T19:47:25.607Z,15.37
2022-10-20T19:49:51.952Z,15.37
2022-10-20T19:52:18.280Z,15.28
2022-10-20T19:54:44.666Z,15.32
2022-10-20T19:57:10.981Z,15.35
2022-10-20T19:59:37.322Z,15.41
2022-10-20T20:02:03.705Z,15.41
2022-10-20T20:04:30.044Z,15.33
2022-10-20T20:07:01.704Z,15.29
2022-10-20T20:09:22.726Z,15.17
2022-10-20T20:11:49.147Z,15.13
2022-10-20T20:14:15.453Z,15.09
2022-10-20T20:16:41.946Z,15.03
2022-10-20T20:19:08.274Z,15.06
2022-10-20T20:21:34.623Z,14.91
2022-10-20T20:24:01.440Z,14.89
2022-10-20T20:26:27.282Z,14.80
2022-10-20T20:28:53.625Z,14.69
2022-10-20T20:31:20.000Z,14.63
2022-10-20T20:33:46.347Z,14.57
2022-10-20T20:36:12.644Z,14.54
2022-10-20T20:38:39.021Z,14.47
2022-10-20T20:41:05.394Z,14.53
2022-10-20T20:43:31.755Z,14.52
2022-10-20T20:45:58.026Z,14.48
2022-10-20T20:48:24.344Z,14.40
2022-10-20T20:50:50.704Z,14.37
2022-10-20T20:53:17.054Z,14.48
2022-10-20T20:55:43.418Z,14.38
2022-10-20T20:58:09.745Z,14.27
2022-10-20T21:00:36.070Z,14.26
2022-10-20T21:03:02.399Z,14.23
2022-10-20T21:05:28.728Z,14.26
2022-10-20T21:07:55.087Z,14.32
2022-10-20T21:10:21.409Z,14.35
2022-10-20T21:12:47.751Z,14.20
2022-10-20T21:15:14.099Z,14.05
2022-10-20T21:17:40.415Z,13.90
2022-10-20T21:20:06.762Z,13.83
2022-10-20T21:22:33.088Z,13.84
2022-10-20T21:24:59.461Z,13.73
2022-10-20T21:27:25.785Z,13.68
2022-10-20T21:29:52.107Z,13.64
2022-10-20T21:32:18.455Z,13.57
2022-10-20T21:34:44.825Z,13.47
2022-10-20T21:37:11.159Z,13.18
2022-10-20T21:39:37.509Z,13.03
2022-10-20T21:42:03.805Z,13.13
2022-10-20T21:44:30.125Z,13.14
2022-10-20T21:46:56.453Z,12.91
2022-10-20T21:49:22.797Z,12.89
2022-10-20T21:51:49.141Z,12.92
2022-10-20T21:54:15.532Z,12.95
2022-10-20T21:56:41.815Z,13.04
2022-10-20T21:59:08.164Z,12.68
2022-10-20T22:01:34.611Z,12.39
2022-10-20T22:04:00.918Z,12.44
2022-10-20T22:06:27.257Z,12.49
2022-10-20T22:08:53.651Z,12.67
2022-10-20T22:11:19.936Z,12.61
2022-10-20T22:13:46.277Z,12.34
2022-10-20T22:16:12.602Z,12.30
2022-10-20T22:18:38.951Z,12.27
2022-10-20T22:21:07.608Z,12.23
2022-10-20T22:23:31.611Z,12.20
2022-10-20T22:25:57.936Z,12.11
2022-10-20T22:28:24.259Z,11.85
2022-10-20T22:30:50.668Z,11.69
2022-10-20T22:33:16.964Z,11.60
2022-10-20T22:35:43.305Z,11.38
2022-10-20T22:38:09.627Z,11.24
2022-10-20T22:40:35.949Z,11.22
2022-10-20T22:43:02.357Z,11.12
2022-10-20T22:45:28.677Z,10.95
2022-10-20T22:47:55.015Z,10.94
2022-10-20T22:50:21.373Z,11.02
2022-10-20T22:52:47.698Z,11.09
2022-10-20T22:55:14.014Z,11.07
2022-10-20T22:57:40.331Z,11.20
2022-10-20T23:00:06.737Z,11.17
2022-10-20T23:02:33.003Z,11.10
2022-10-20T23:04:59.352Z,11.02
2022-10-20T23:07:25.661Z,11.05
2022-10-20T23:09:51.975Z,11.06
2022-10-20T23:12:18.314Z,10.99
2022-10-20T23:14:44.624Z,10.95
2022-10-20T23:17:10.944Z,11.00
2022-10-20T23:19:37.293Z,10.91
2022-10-20T23:22:03.656Z,10.95
2022-10-20T23:24:29.990Z,11.04
2022-10-20T23:26:56.371Z,11.11
2022-10-20T23:29:22.700Z,11.24
2022-10-20T23:31:49.048Z,11.26
2022-10-20T23:34:15.357Z,11.28
2022-10-20T23:36:41.690Z,11.16
2022-10-20T23:39:08.008Z,11.09
2022-10-20T23:41:34.340Z,11.09
2022-10-20T23:44:00.733Z,11.16
2022-10-20T23:46:27.055Z,11.21
2022-10-20T23:48:53.370Z,11.27
2022-10-20T23:51:19.726Z,11.23
2022-10-20T23:53:46.042Z,11.21
2022-10-20T23:56:12.381Z,11.14
2022-10-20T23:58:38.723Z,11.24
